Terminal Aerodrome Forecast
Issued by NWS Albany, NY

Current Version | Previous Version | Text Only | Print | Product List | Glossary On
Versions: 1 2 3 4 5 6 7 8 9 10 11 12 13 14 15 16 17 18 19 20
000 FTUS41 KALY 180500 TAFALB TAF KALB 180537Z 1806/1906 27008KT P6SM VCSH BKN025 BKN035 OVC060 TEMPO 1806/1810 2SM -SN BR VV009 FM181300 29012G19KT P6SM BKN035 FM182200 30010G16KT P6SM SCT025 BKN040=

USA.gov is the U.S. government's official web portal to all federal, state and local government web resources and services.